createdAt,value
2022-12-12T00:02:23.007Z,2.13
2022-12-12T00:05:14.015Z,1.03
2022-12-12T00:08:00.210Z,1.97
2022-12-12T00:10:45.992Z,10.60
2022-12-12T00:13:32.157Z,2.97
2022-12-12T00:16:17.791Z,9.63
2022-12-12T00:19:03.843Z,2.23
2022-12-12T00:21:50.479Z,9.07
2022-12-12T00:24:36.434Z,0.60
2022-12-12T00:27:22.520Z,0.20
2022-12-12T00:30:08.893Z,0.10
2022-12-12T00:32:54.719Z,1.37
2022-12-12T00:35:40.550Z,0.30
2022-12-12T00:38:25.925Z,0.30
2022-12-12T00:41:11.766Z,1.30
2022-12-12T00:43:57.464Z,0.67
2022-12-12T00:46:43.380Z,1.03
2022-12-12T00:49:29.141Z,0.43
2022-12-12T00:52:15.168Z,21.97
2022-12-12T00:55:01.022Z,0.60
2022-12-12T00:57:46.712Z,0.40
2022-12-12T01:00:33.299Z,0.47
2022-12-12T01:03:19.391Z,0.20
2022-12-12T01:06:06.152Z,0.47
2022-12-12T01:08:52.394Z,1.90
2022-12-12T01:11:38.348Z,0.27
2022-12-12T01:14:24.012Z,0.70
2022-12-12T01:17:09.599Z,1.00
2022-12-12T01:19:55.346Z,0.70
2022-12-12T01:22:41.207Z,0.67
2022-12-12T01:25:27.065Z,3.07
2022-12-12T01:28:12.892Z,8.83
2022-12-12T01:30:58.879Z,0.37
2022-12-12T01:33:46.401Z,0.47
2022-12-12T01:36:32.760Z,0.20
2022-12-12T01:39:18.838Z,13.97
2022-12-12T01:42:04.682Z,0.33
2022-12-12T01:44:51.791Z,1.40
2022-12-12T01:47:37.117Z,0.30
2022-12-12T01:50:23.723Z,8.63
2022-12-12T01:53:11.278Z,0.20
2022-12-12T01:55:57.824Z,0.60
2022-12-12T01:58:47.295Z,0.43
2022-12-12T02:01:33.577Z,2.53
2022-12-12T02:04:22.072Z,1.80
2022-12-12T02:07:08.142Z,2.83
2022-12-12T02:09:53.761Z,0.50
2022-12-12T02:12:39.393Z,0.93
2022-12-12T02:15:28.100Z,2.07
2022-12-12T02:18:28.169Z,2.67
2022-12-12T02:21:19.925Z,1.50
2022-12-12T02:24:27.372Z,0.20
2022-12-12T02:27:31.301Z,0.10
2022-12-12T02:30:22.528Z,2.67
2022-12-12T02:33:08.324Z,1.40
2022-12-12T02:35:57.673Z,1.90
2022-12-12T02:39:04.952Z,0.50
2022-12-12T02:41:52.883Z,5.17
2022-12-12T02:45:07.121Z,4.13
2022-12-12T02:48:07.261Z,0.77
2022-12-12T02:50:56.209Z,2.80
2022-12-12T02:53:41.919Z,1.50
2022-12-12T02:56:45.941Z,3.10
2022-12-12T02:59:35.986Z,0.63
2022-12-12T03:02:44.716Z,1.13
2022-12-12T03:06:26.813Z,1.57
2022-12-12T03:09:39.962Z,6.57
2022-12-12T03:12:41.660Z,1.80
2022-12-12T03:15:59.405Z,1.30
2022-12-12T03:19:03.637Z,0.90
2022-12-12T03:21:49.359Z,2.20
2022-12-12T03:25:09.159Z,1.07
2022-12-12T03:28:14.394Z,6.57
2022-12-12T03:31:06.192Z,2.10
2022-12-12T03:34:03.147Z,0.63
2022-12-12T03:37:03.105Z,1.67
2022-12-12T03:39:57.883Z,1.87
2022-12-12T03:43:10.270Z,3.20
2022-12-12T03:46:12.034Z,1.60
2022-12-12T03:49:04.546Z,0.57
2022-12-12T03:52:16.437Z,0.50
2022-12-12T03:55:15.216Z,0.87
2022-12-12T03:58:09.260Z,0.13
2022-12-12T04:00:58.611Z,3.10
2022-12-12T04:04:24.064Z,1.13
2022-12-12T04:07:23.185Z,0.73
2022-12-12T04:10:28.878Z,0.30
2022-12-12T04:13:40.588Z,0.10
2022-12-12T04:16:31.916Z,0.80
2022-12-12T04:20:08.282Z,1.17
2022-12-12T04:23:17.400Z,0.40
2022-12-12T04:26:41.292Z,0.30
2022-12-12T04:29:26.831Z,0.10
2022-12-12T04:32:18.038Z,0.33
2022-12-12T04:35:16.230Z,0.47
2022-12-12T04:38:07.622Z,1.53
2022-12-12T04:40:56.944Z,1.90
2022-12-12T04:43:47.714Z,0.30
2022-12-12T04:46:34.358Z,1.80
2022-12-12T04:49:25.352Z,2.10
2022-12-12T04:52:13.658Z,2.83
2022-12-12T04:55:05.512Z,0.57
2022-12-12T04:57:56.905Z,1.13
2022-12-12T05:01:06.838Z,0.87
2022-12-12T05:03:59.261Z,1.30
2022-12-12T05:06:53.287Z,0.30
2022-12-12T05:09:39.673Z,1.03
2022-12-12T05:12:26.172Z,0.50
2022-12-12T05:15:13.088Z,2.37
2022-12-12T05:18:03.218Z,0.10
2022-12-12T05:20:49.598Z,1.90
2022-12-12T05:23:35.396Z,0.60
2022-12-12T05:26:24.915Z,3.87
2022-12-12T05:29:10.915Z,0.70
2022-12-12T05:31:56.431Z,0.40
2022-12-12T05:34:42.157Z,5.20
2022-12-12T05:37:27.906Z,2.03
2022-12-12T05:40:14.350Z,8.37
2022-12-12T05:43:00.191Z,3.10
2022-12-12T05:45:46.110Z,1.40
2022-12-12T05:48:32.122Z,0.20
2022-12-12T05:51:19.054Z,0.40
2022-12-12T05:54:04.690Z,2.33
2022-12-12T05:56:50.635Z,2.40
2022-12-12T05:59:36.312Z,0.20
2022-12-12T06:02:21.929Z,0.87
2022-12-12T06:05:08.262Z,0.50
2022-12-12T06:07:54.346Z,1.17
2022-12-12T06:10:40.030Z,2.10
2022-12-12T06:13:25.789Z,2.57
2022-12-12T06:16:17.099Z,0.33
2022-12-12T06:19:03.109Z,1.03
2022-12-12T06:21:48.972Z,0.93
2022-12-12T06:24:35.078Z,0.73
2022-12-12T06:27:23.302Z,0.10
2022-12-12T06:30:09.628Z,0.83
2022-12-12T06:32:56.314Z,1.43
2022-12-12T06:35:42.165Z,0.73
2022-12-12T06:38:28.190Z,0.43
2022-12-12T06:41:15.802Z,7.93
2022-12-12T06:44:03.040Z,3.50
2022-12-12T06:46:49.899Z,1.97
2022-12-12T06:49:38.158Z,0.30
2022-12-12T06:52:23.708Z,2.83
2022-12-12T06:55:09.891Z,5.70
2022-12-12T06:57:55.875Z,2.17
2022-12-12T07:00:41.749Z,2.03
2022-12-12T07:03:27.419Z,6.40
2022-12-12T07:06:13.669Z,4.23
2022-12-12T07:09:00.534Z,4.50
2022-12-12T07:11:46.533Z,1.50
2022-12-12T07:14:32.269Z,2.00
2022-12-12T07:17:17.789Z,6.90
2022-12-12T07:20:06.544Z,0.47
2022-12-12T07:22:56.674Z,5.47
2022-12-12T07:25:51.483Z,1.83
2022-12-12T07:28:51.480Z,5.53
2022-12-12T07:31:46.699Z,1.03
2022-12-12T07:34:32.578Z,2.00
2022-12-12T07:37:18.776Z,2.23
2022-12-12T07:40:05.022Z,4.00
2022-12-12T07:42:51.142Z,0.97
2022-12-12T07:45:37.062Z,1.43
2022-12-12T07:48:22.971Z,1.00
2022-12-12T07:51:10.036Z,2.90
2022-12-12T07:53:57.444Z,0.47
2022-12-12T07:59:53.645Z,1.33
2022-12-12T08:02:41.256Z,1.97
2022-12-12T08:05:29.539Z,2.37
2022-12-12T08:11:18.025Z,2.08
2022-12-12T08:14:12.733Z,2.03
2022-12-12T08:17:00.776Z,0.33
2022-12-12T08:23:02.758Z,3.88
2022-12-12T08:25:48.983Z,2.53
2022-12-12T08:28:35.557Z,1.23
2022-12-12T08:31:23.391Z,1.73
2022-12-12T08:34:11.176Z,2.20
2022-12-12T08:36:57.473Z,1.03
2022-12-12T08:42:47.592Z,4.23
2022-12-12T08:45:33.680Z,0.90
2022-12-12T08:48:19.654Z,1.10
2022-12-12T08:51:07.115Z,6.10
2022-12-12T08:53:55.513Z,3.80
2022-12-12T08:59:46.152Z,0.70
2022-12-12T09:02:32.708Z,1.90
2022-12-12T09:05:19.672Z,0.67
2022-12-12T09:08:06.313Z,5.13
2022-12-12T09:10:52.540Z,1.90
2022-12-12T09:13:41.081Z,4.67
2022-12-12T09:16:27.919Z,1.07
2022-12-12T09:19:14.037Z,2.00
2022-12-12T09:22:03.427Z,6.17
2022-12-12T09:24:53.636Z,0.27
2022-12-12T09:27:40.035Z,0.83
2022-12-12T09:30:26.375Z,4.27
2022-12-12T09:33:15.013Z,6.13
2022-12-12T09:36:13.854Z,2.90
2022-12-12T09:38:59.980Z,0.73
2022-12-12T09:41:47.299Z,1.47
2022-12-12T09:44:34.448Z,0.57
2022-12-12T09:50:49.254Z,4.17
2022-12-12T09:53:38.806Z,1.23
2022-12-12T09:56:38.004Z,2.13
2022-12-12T09:59:31.097Z,1.87
2022-12-12T10:02:43.822Z,12.80
2022-12-12T10:09:32.787Z,1.50
2022-12-12T10:12:26.027Z,2.03
2022-12-12T10:15:29.898Z,0.40
2022-12-12T10:18:39.204Z,1.40
2022-12-12T10:24:50.893Z,0.52
2022-12-12T10:27:36.833Z,6.10
2022-12-12T10:30:22.692Z,3.20
2022-12-12T10:33:26.659Z,3.20
2022-12-12T10:36:30.375Z,5.35
2022-12-12T10:39:38.946Z,1.33
2022-12-12T10:42:43.462Z,0.40
2022-12-12T10:46:10.938Z,3.20
2022-12-12T10:48:58.963Z,3.23
2022-12-12T10:51:47.421Z,4.90
2022-12-12T10:54:38.817Z,2.37
2022-12-12T10:57:33.679Z,1.50
2022-12-12T11:00:30.167Z,1.23
2022-12-12T11:03:42.482Z,0.77
2022-12-12T11:06:53.553Z,2.33
2022-12-12T11:09:45.794Z,0.50
2022-12-12T11:12:35.878Z,1.43
2022-12-12T11:15:25.874Z,4.30
2022-12-12T11:18:17.568Z,0.80
2022-12-12T11:21:11.202Z,0.67
2022-12-12T11:24:07.159Z,2.05
2022-12-12T11:27:00.472Z,9.60
2022-12-12T11:29:55.866Z,1.73
2022-12-12T11:35:58.538Z,7.53
2022-12-12T11:38:51.558Z,3.80
2022-12-12T11:42:17.461Z,1.67
2022-12-12T11:45:08.976Z,1.67
2022-12-12T11:47:55.295Z,2.83
2022-12-12T11:50:46.413Z,6.90
2022-12-12T11:53:39.877Z,0.37
2022-12-12T11:56:38.938Z,0.50
2022-12-12T11:59:54.950Z,7.23
2022-12-12T12:02:55.818Z,0.57
2022-12-12T12:06:07.911Z,2.50
2022-12-12T12:09:02.611Z,2.97
2022-12-12T12:12:13.322Z,2.90
2022-12-12T12:15:22.548Z,6.43
2022-12-12T12:18:32.783Z,3.43
2022-12-12T12:21:33.823Z,3.53
2022-12-12T12:24:36.025Z,0.63
2022-12-12T12:27:35.497Z,0.20
2022-12-12T12:30:28.977Z,0.30
2022-12-12T12:33:50.063Z,0.10
2022-12-12T12:36:55.865Z,1.23
2022-12-12T12:40:07.565Z,0.57
2022-12-12T12:43:08.697Z,3.00
2022-12-12T12:46:05.725Z,0.20
2022-12-12T12:48:55.917Z,7.93
2022-12-12T12:51:53.711Z,0.73
2022-12-12T12:54:42.081Z,10.03
2022-12-12T12:57:36.300Z,6.27
2022-12-12T13:00:26.242Z,0.87
2022-12-12T13:03:21.594Z,3.20
2022-12-12T13:06:14.538Z,1.23
2022-12-12T13:09:07.269Z,15.47
2022-12-12T13:12:01.720Z,1.10
2022-12-12T13:14:56.537Z,0.73
2022-12-12T13:18:01.794Z,3.50
2022-12-12T13:21:06.115Z,2.97
2022-12-12T13:23:59.141Z,2.63
2022-12-12T13:27:03.411Z,4.47
2022-12-12T13:29:53.954Z,5.70
2022-12-12T13:33:32.824Z,0.50
2022-12-12T13:36:45.921Z,0.10
2022-12-12T13:39:38.138Z,2.83
2022-12-12T13:42:23.989Z,0.23
2022-12-12T13:45:44.268Z,2.00
2022-12-12T13:48:46.172Z,0.57
2022-12-12T13:51:34.883Z,4.40
2022-12-12T13:54:21.367Z,2.77
2022-12-12T13:57:13.385Z,1.67
2022-12-12T14:00:06.156Z,0.10
2022-12-12T14:03:10.883Z,7.20
2022-12-12T14:06:10.860Z,3.43
2022-12-12T14:08:58.224Z,3.00
2022-12-12T14:11:44.164Z,5.43
2022-12-12T14:14:32.244Z,13.03
2022-12-12T14:17:26.945Z,13.27
2022-12-12T14:20:51.722Z,4.90
2022-12-12T14:23:47.889Z,12.33
2022-12-12T14:26:33.512Z,10.80
2022-12-12T14:29:19.529Z,2.93
2022-12-12T14:32:11.232Z,7.43
2022-12-12T14:35:06.751Z,1.23
2022-12-12T14:37:52.233Z,3.60
2022-12-12T14:40:44.726Z,5.37
2022-12-12T14:43:35.999Z,1.37
2022-12-12T14:46:22.324Z,0.10
2022-12-12T14:49:17.318Z,0.90
2022-12-12T14:52:03.333Z,3.30
2022-12-12T14:54:52.028Z,1.33
2022-12-12T14:57:37.949Z,1.17
2022-12-12T15:00:24.372Z,0.20
2022-12-12T15:06:42.517Z,8.40
2022-12-12T15:09:40.668Z,9.87
2022-12-12T15:12:33.094Z,4.17
2022-12-12T15:15:30.156Z,5.67
2022-12-12T15:18:18.187Z,7.37
2022-12-12T15:21:04.941Z,10.47
2022-12-12T15:23:50.701Z,9.23
2022-12-12T15:26:36.876Z,5.70
2022-12-12T15:29:31.863Z,9.60
2022-12-12T15:32:21.299Z,5.93
2022-12-12T15:35:10.074Z,4.90
2022-12-12T15:38:16.188Z,5.00
2022-12-12T15:41:12.743Z,4.23
2022-12-12T15:47:38.170Z,3.27
2022-12-12T15:50:42.551Z,4.37
2022-12-12T15:53:40.821Z,9.23
2022-12-12T15:56:31.116Z,14.07
2022-12-12T15:59:25.452Z,4.97
2022-12-12T16:02:33.570Z,4.10
2022-12-12T16:05:19.715Z,3.93
2022-12-12T16:08:45.411Z,4.77
2022-12-12T16:11:50.861Z,6.70
2022-12-12T16:14:42.839Z,1.90
2022-12-12T16:17:30.108Z,6.57
2022-12-12T16:20:15.843Z,6.23
2022-12-12T16:23:18.789Z,11.13
2022-12-12T16:26:04.685Z,6.27
2022-12-12T16:28:50.554Z,4.83
2022-12-12T16:31:37.683Z,7.90
2022-12-12T16:34:23.560Z,2.83
2022-12-12T16:37:17.758Z,1.40
2022-12-12T16:40:04.361Z,4.93
2022-12-12T16:43:10.728Z,4.40
2022-12-12T16:45:57.877Z,5.77
2022-12-12T16:48:45.687Z,0.57
2022-12-12T16:51:34.788Z,0.73
2022-12-12T16:54:20.867Z,6.90
2022-12-12T16:57:06.671Z,3.90
2022-12-12T16:59:52.563Z,0.20
2022-12-12T17:02:39.567Z,10.13
2022-12-12T17:05:26.845Z,14.20
2022-12-12T17:08:13.069Z,10.93
2022-12-12T17:11:10.385Z,14.40
2022-12-12T17:13:56.950Z,3.67
2022-12-12T17:16:42.841Z,2.80
2022-12-12T17:19:28.755Z,6.20
2022-12-12T17:22:14.316Z,11.33
2022-12-12T17:25:00.983Z,8.80
2022-12-12T17:27:47.525Z,2.37
2022-12-12T17:30:34.330Z,1.13
2022-12-12T17:33:20.177Z,9.07
2022-12-12T17:36:06.904Z,5.90
2022-12-12T17:38:53.775Z,12.77
2022-12-12T17:41:39.452Z,11.27
2022-12-12T17:44:24.918Z,2.03
2022-12-12T17:47:10.839Z,1.50
2022-12-12T17:49:56.527Z,21.83
2022-12-12T17:52:42.244Z,0.70
2022-12-12T17:55:51.420Z,5.27
2022-12-12T17:58:35.985Z,10.33
2022-12-12T18:01:26.661Z,11.27
2022-12-12T18:04:12.284Z,12.27
2022-12-12T18:06:57.948Z,11.30
2022-12-12T18:09:43.909Z,15.23
2022-12-12T18:12:31.301Z,23.70
2022-12-12T18:15:17.274Z,10.60
2022-12-12T18:18:03.063Z,14.67
2022-12-12T18:20:49.115Z,13.27
2022-12-12T18:23:34.790Z,17.57
2022-12-12T18:26:22.589Z,20.80
2022-12-12T18:29:11.166Z,14.57
2022-12-12T18:31:57.139Z,22.60
2022-12-12T18:34:43.589Z,15.30
2022-12-12T18:37:29.247Z,54.80
2022-12-12T18:40:15.107Z,10.67
2022-12-12T18:43:00.799Z,16.80
2022-12-12T18:45:46.790Z,12.80
2022-12-12T18:48:36.361Z,22.53
2022-12-12T18:51:26.233Z,9.43
2022-12-12T18:54:15.505Z,12.00
2022-12-12T18:57:01.582Z,10.03
2022-12-12T18:59:47.476Z,18.33
2022-12-12T19:02:38.362Z,13.88
2022-12-12T19:05:24.770Z,4.37
2022-12-12T19:08:11.051Z,2.30
2022-12-12T19:10:57.128Z,17.30
2022-12-12T19:13:43.512Z,11.20
2022-12-12T19:16:31.544Z,7.93
2022-12-12T19:19:17.585Z,12.23
2022-12-12T19:22:18.653Z,8.20
2022-12-12T19:25:09.847Z,19.00
2022-12-12T19:27:55.512Z,16.63
2022-12-12T19:30:41.865Z,9.10
2022-12-12T19:33:27.475Z,10.73
2022-12-12T19:36:16.439Z,4.53
2022-12-12T19:39:04.926Z,12.50
2022-12-12T19:41:50.606Z,22.27
2022-12-12T19:44:43.173Z,11.60
2022-12-12T19:47:30.299Z,10.40
2022-12-12T19:50:18.788Z,10.27
2022-12-12T19:53:04.521Z,32.17
2022-12-12T19:55:55.274Z,4.70
2022-12-12T19:58:41.713Z,20.77
2022-12-12T20:01:36.711Z,31.40
2022-12-12T20:04:26.310Z,20.70
2022-12-12T20:07:12.254Z,19.90
2022-12-12T20:09:57.995Z,27.00
2022-12-12T20:12:54.410Z,5.80
2022-12-12T20:15:41.810Z,9.07
2022-12-12T20:18:27.926Z,3.53
2022-12-12T20:21:43.111Z,8.77
2022-12-12T20:24:24.123Z,29.23
2022-12-12T20:27:11.341Z,15.67
2022-12-12T20:29:56.865Z,31.27
2022-12-12T20:32:42.654Z,28.03
2022-12-12T20:35:28.600Z,10.75
2022-12-12T20:38:14.430Z,5.50
2022-12-12T20:41:00.811Z,11.87
2022-12-12T20:43:47.570Z,26.75
2022-12-12T20:46:37.308Z,16.67
2022-12-12T20:49:24.844Z,29.13
2022-12-12T20:52:10.275Z,20.37
2022-12-12T20:54:56.058Z,19.07
2022-12-12T20:57:42.053Z,42.30
2022-12-12T21:00:29.829Z,19.27
2022-12-12T21:03:15.765Z,38.43
2022-12-12T21:06:01.435Z,13.60
2022-12-12T21:08:48.639Z,45.10
2022-12-12T21:11:34.206Z,23.33
2022-12-12T21:14:21.355Z,58.60
2022-12-12T21:17:07.326Z,30.87
2022-12-12T21:19:53.095Z,27.53
2022-12-12T21:22:38.739Z,40.13
2022-12-12T21:25:24.502Z,22.00
2022-12-12T21:28:10.447Z,51.37
2022-12-12T21:30:57.746Z,35.07
2022-12-12T21:33:44.600Z,54.73
2022-12-12T21:36:31.475Z,22.07
2022-12-12T21:39:17.223Z,36.63
2022-12-12T21:42:03.449Z,27.43
2022-12-12T21:44:49.330Z,26.97
2022-12-12T21:47:36.967Z,15.93
2022-12-12T21:50:28.987Z,12.40
2022-12-12T21:53:34.360Z,28.80
2022-12-12T21:56:20.360Z,30.27
2022-12-12T21:59:06.342Z,11.53
2022-12-12T22:01:55.740Z,41.37
2022-12-12T22:04:41.838Z,21.97
2022-12-12T22:07:27.243Z,38.17
2022-12-12T22:10:12.824Z,35.13
2022-12-12T22:12:58.203Z,31.20
2022-12-12T22:15:43.909Z,13.03
2022-12-12T22:18:29.986Z,36.77
2022-12-12T22:21:19.769Z,41.93
2022-12-12T22:24:06.187Z,27.97
2022-12-12T22:26:51.601Z,30.07
2022-12-12T22:29:37.991Z,30.03
2022-12-12T22:32:23.740Z,31.00
2022-12-12T22:35:09.921Z,52.47
2022-12-12T22:37:55.379Z,39.07
2022-12-12T22:40:41.060Z,8.50
2022-12-12T22:43:28.282Z,8.83
2022-12-12T22:46:13.947Z,39.00
2022-12-12T22:49:01.658Z,32.83
2022-12-12T22:51:48.778Z,39.53
2022-12-12T22:54:34.398Z,58.10
2022-12-12T22:57:20.210Z,18.33
2022-12-12T23:00:10.730Z,28.13
2022-12-12T23:02:56.501Z,23.27
2022-12-12T23:05:43.089Z,31.75
2022-12-12T23:08:30.650Z,25.77
2022-12-12T23:11:17.932Z,31.67
2022-12-12T23:14:07.079Z,15.13
2022-12-12T23:16:54.328Z,25.80
2022-12-12T23:19:40.253Z,28.60
2022-12-12T23:22:25.799Z,35.20
2022-12-12T23:25:12.004Z,33.90
2022-12-12T23:27:58.030Z,24.67
2022-12-12T23:30:43.583Z,29.80
2022-12-12T23:33:29.672Z,21.77
2022-12-12T23:36:18.347Z,18.87
2022-12-12T23:39:07.887Z,16.83
2022-12-12T23:41:54.184Z,13.90
2022-12-12T23:44:40.031Z,4.27
2022-12-12T23:47:25.423Z,15.23
2022-12-12T23:50:11.017Z,22.20
2022-12-12T23:52:56.797Z,11.10
2022-12-12T23:55:42.093Z,4.70
2022-12-12T23:58:29.381Z,34.23
